createdAt,value
2022-12-12T00:01:30.640Z,7.9
2022-12-12T00:07:11.542Z,7.8
2022-12-12T00:13:08.124Z,7.7
2022-12-12T00:18:46.444Z,7.7
2022-12-12T00:24:21.672Z,7.8
2022-12-12T00:29:57.413Z,7.9
2022-12-12T00:35:33.452Z,7.9
2022-12-12T00:41:15.439Z,7.8
2022-12-12T00:47:12.755Z,7.7
2022-12-12T00:52:45.596Z,7.5
2022-12-12T00:58:37.219Z,7.4
2022-12-12T01:04:13.337Z,7.4
2022-12-12T01:10:07.939Z,7.3
2022-12-12T01:16:02.533Z,7.2
2022-12-12T01:21:44.170Z,7.2
2022-12-12T01:27:22.095Z,7.1
2022-12-12T01:33:05.632Z,7
2022-12-12T01:38:45.245Z,6.9
2022-12-12T01:44:20.078Z,6.9
2022-12-12T01:49:59.821Z,6.9
2022-12-12T01:55:34.669Z,6.9
2022-12-12T02:01:09.777Z,6.9
2022-12-12T02:06:45.875Z,7
2022-12-12T02:12:21.801Z,7
2022-12-12T02:18:12.789Z,7
2022-12-12T02:23:51.018Z,7.1
2022-12-12T02:29:36.989Z,7
2022-12-12T02:35:25.406Z,6.9
2022-12-12T02:41:13.656Z,6.9
2022-12-12T02:47:11.368Z,6.8
2022-12-12T02:52:44.325Z,6.7
2022-12-12T02:58:19.289Z,6.7
2022-12-12T03:03:54.281Z,6.6
2022-12-12T03:09:29.638Z,6.6
2022-12-12T03:15:25.446Z,6.5
2022-12-12T03:21:05.318Z,6.5
2022-12-12T03:26:40.939Z,6.6
2022-12-12T03:32:25.908Z,6.6
2022-12-12T03:38:01.400Z,6.6
2022-12-12T03:44:15.905Z,6.6
2022-12-12T03:49:51.259Z,6.6
2022-12-12T03:55:42.643Z,6.6
2022-12-12T04:01:39.368Z,6.7
2022-12-12T04:08:01.705Z,6.8
2022-12-12T04:13:39.604Z,6.8
2022-12-12T04:19:15.384Z,6.7
2022-12-12T04:24:51.026Z,6.6
2022-12-12T04:30:26.121Z,6.6
2022-12-12T04:36:19.964Z,6.7
2022-12-12T04:42:03.790Z,6.7
2022-12-12T04:48:00.478Z,6.7
2022-12-12T04:53:38.865Z,6.6
2022-12-12T04:59:30.325Z,6.5
2022-12-12T05:05:22.062Z,6.5
2022-12-12T05:11:01.134Z,6.5
2022-12-12T05:16:41.478Z,6.5
2022-12-12T05:22:17.693Z,6.4
2022-12-12T05:28:14.392Z,6.4
2022-12-12T05:33:49.780Z,6.3
2022-12-12T05:40:10.322Z,6.3
2022-12-12T05:45:46.309Z,6.4
2022-12-12T05:51:23.110Z,6.4
2022-12-12T05:57:19.177Z,6.4
2022-12-12T06:03:02.715Z,6.3
2022-12-12T06:08:40.991Z,6.3
2022-12-12T06:14:35.808Z,6.2
2022-12-12T06:20:10.531Z,6.2
2022-12-12T06:25:46.374Z,6.2
2022-12-12T06:32:03.543Z,6.1
2022-12-12T06:37:39.368Z,6.1
2022-12-12T06:43:19.482Z,6.1
2022-12-12T06:49:37.571Z,6.1
2022-12-12T06:55:12.010Z,6.1
2022-12-12T07:00:50.143Z,6.1
2022-12-12T07:06:26.359Z,6.1
2022-12-12T07:12:01.956Z,6.3
2022-12-12T07:17:47.880Z,6.5
2022-12-12T07:23:23.272Z,6.3
2022-12-12T07:28:58.741Z,4.3
2022-12-12T07:34:35.094Z,4.1
2022-12-12T07:40:19.202Z,4
2022-12-12T07:45:54.044Z,4.1
2022-12-12T07:51:29.653Z,4.6
2022-12-12T07:57:08.167Z,4.8
2022-12-12T08:02:47.132Z,4.9
2022-12-12T08:08:54.082Z,4.4
2022-12-12T08:14:29.925Z,4.1
2022-12-12T08:20:05.441Z,4.6
2022-12-12T08:25:41.977Z,4.9
2022-12-12T08:31:17.200Z,5.4
2022-12-12T08:36:53.567Z,5.2
2022-12-12T08:42:30.633Z,5
2022-12-12T08:48:27.579Z,4.8
2022-12-12T08:54:00.089Z,4.8
2022-12-12T08:59:35.365Z,4.9
2022-12-12T09:05:10.465Z,5.1
2022-12-12T09:10:49.686Z,5.2
2022-12-12T09:16:26.282Z,5.5
2022-12-12T09:22:05.232Z,5.6
2022-12-12T09:27:46.220Z,5.5
2022-12-12T09:33:21.529Z,6.1
2022-12-12T09:38:56.740Z,6.4
2022-12-12T09:44:31.922Z,6.5
2022-12-12T09:50:06.940Z,6.6
2022-12-12T09:55:43.217Z,6.7
2022-12-12T10:01:18.531Z,6.8
2022-12-12T10:06:55.202Z,7.4
2022-12-12T10:12:29.929Z,7.6
2022-12-12T10:18:05.118Z,7.4
2022-12-12T10:23:40.780Z,7.9
2022-12-12T10:29:16.474Z,8
2022-12-12T10:34:51.506Z,8.1
2022-12-12T10:40:27.072Z,8.1
2022-12-12T10:46:02.618Z,8.1
2022-12-12T10:51:40.051Z,8.2
2022-12-12T10:57:20.003Z,8.2
2022-12-12T11:03:00.243Z,8.3
2022-12-12T11:08:37.464Z,8
2022-12-12T11:14:13.013Z,8
2022-12-12T11:19:49.372Z,7.8
2022-12-12T11:25:24.766Z,7.9
2022-12-12T11:31:03.664Z,7.9
2022-12-12T11:37:00.369Z,7.6
2022-12-12T11:42:35.535Z,7.6
2022-12-12T11:48:32.733Z,7.5
2022-12-12T11:54:05.554Z,7.3
2022-12-12T11:59:40.990Z,7.3
2022-12-12T12:05:17.265Z,7.4
2022-12-12T12:10:52.729Z,7.2
2022-12-12T12:16:27.673Z,7
2022-12-12T12:22:04.272Z,7
2022-12-12T12:27:40.522Z,7
2022-12-12T12:33:15.772Z,7
2022-12-12T12:38:51.681Z,6.9
2022-12-12T12:44:29.397Z,6.9
2022-12-12T12:50:04.408Z,6.9
2022-12-12T12:55:44.201Z,7
2022-12-12T13:01:20.757Z,6.9
2022-12-12T13:06:56.347Z,7
2022-12-12T13:12:32.636Z,7.1
2022-12-12T13:18:10.983Z,7
2022-12-12T13:23:47.432Z,7.1
2022-12-12T13:29:22.548Z,7.1
2022-12-12T13:34:58.476Z,7
2022-12-12T13:40:33.739Z,7.3
2022-12-12T13:46:09.102Z,7.4
2022-12-12T13:51:49.837Z,7.6
2022-12-12T13:57:24.831Z,8
2022-12-12T14:03:04.854Z,7.9
2022-12-12T14:08:41.200Z,8
2022-12-12T14:14:16.201Z,7.7
2022-12-12T14:20:01.033Z,7.7
2022-12-12T14:25:37.882Z,7.8
2022-12-12T14:31:12.968Z,8
2022-12-12T14:36:50.022Z,8.1
2022-12-12T14:43:15.161Z,8.1
2022-12-12T14:49:23.693Z,8.2
2022-12-12T14:54:56.912Z,8.2
2022-12-12T15:00:33.403Z,8.2
2022-12-12T15:06:17.465Z,8.9
2022-12-12T15:11:53.885Z,8.5
2022-12-12T15:17:31.484Z,8.3
2022-12-12T15:23:06.198Z,8.3
2022-12-12T15:28:41.841Z,8.3
2022-12-12T15:34:18.485Z,8.3
2022-12-12T15:39:57.674Z,8.2
2022-12-12T15:45:32.888Z,8.2
2022-12-12T15:51:22.970Z,8.2
2022-12-12T15:57:00.954Z,8.2
2022-12-12T16:02:45.483Z,8.1
2022-12-12T16:08:20.643Z,8
2022-12-12T16:14:06.797Z,7.9
2022-12-12T16:19:42.493Z,7.9
2022-12-12T16:25:17.558Z,7.8
2022-12-12T16:30:53.027Z,7.7
2022-12-12T16:36:29.068Z,7.7
2022-12-12T16:42:14.291Z,7.7
2022-12-12T16:48:11.494Z,7.8
2022-12-12T16:53:44.437Z,7.6
2022-12-12T16:59:20.376Z,7.6
2022-12-12T17:04:55.300Z,7.4
2022-12-12T17:10:35.808Z,7.5
2022-12-12T17:16:11.565Z,7.6
2022-12-12T17:21:47.324Z,7.8
2022-12-12T17:27:22.379Z,8
2022-12-12T17:33:16.343Z,8
2022-12-12T17:38:52.048Z,8.1
2022-12-12T17:44:27.793Z,8.1
2022-12-12T17:50:02.594Z,7.8
2022-12-12T17:55:52.761Z,7.8
2022-12-12T18:01:43.335Z,7.9
2022-12-12T18:07:53.157Z,8.1
2022-12-12T18:13:43.178Z,8.2
2022-12-12T18:19:27.387Z,8.2
2022-12-12T18:25:02.723Z,8.2
2022-12-12T18:30:46.858Z,8.4
2022-12-12T18:36:25.077Z,8.3
2022-12-12T18:42:00.081Z,8.1
2022-12-12T18:47:56.880Z,7.9
2022-12-12T18:53:30.497Z,7.8
2022-12-12T18:59:06.094Z,8.4
2022-12-12T19:04:41.755Z,8.8
2022-12-12T19:10:17.067Z,9.1
2022-12-12T19:15:52.503Z,9.2
2022-12-12T19:21:33.930Z,9.3
2022-12-12T19:27:09.056Z,9.3
2022-12-12T19:32:44.278Z,9.4
2022-12-12T19:38:24.257Z,9.6
2022-12-12T19:44:09.001Z,9.7
2022-12-12T19:49:44.076Z,9.9
2022-12-12T19:55:20.304Z,9.9
2022-12-12T20:00:55.765Z,10
2022-12-12T20:06:31.293Z,10.3
2022-12-12T20:12:07.317Z,10.5
2022-12-12T20:17:42.783Z,10.7
2022-12-12T20:23:18.258Z,10.8
2022-12-12T20:28:53.336Z,10.9
2022-12-12T20:34:29.157Z,10.9
2022-12-12T20:40:04.850Z,10.9
2022-12-12T20:45:40.750Z,10.9
2022-12-12T20:51:45.942Z,10.9
2022-12-12T20:57:42.980Z,11
2022-12-12T21:03:26.816Z,11
2022-12-12T21:09:05.844Z,11
2022-12-12T21:14:43.207Z,11
2022-12-12T21:20:18.372Z,11
2022-12-12T21:25:53.570Z,11
2022-12-12T21:31:28.868Z,11.1
2022-12-12T21:37:06.004Z,11.1
2022-12-12T21:42:41.181Z,11.1
2022-12-12T21:48:19.704Z,11.2
2022-12-12T21:54:00.074Z,11.2
2022-12-12T21:59:44.250Z,11.3
2022-12-12T22:05:19.223Z,11.4
2022-12-12T22:10:54.626Z,11.4
2022-12-12T22:16:30.410Z,11.5
2022-12-12T22:22:06.293Z,11.5
2022-12-12T22:27:41.550Z,11.6
2022-12-12T22:33:16.549Z,11.6
2022-12-12T22:38:52.081Z,11.7
2022-12-12T22:44:27.278Z,11.7
2022-12-12T22:50:02.549Z,11.8
2022-12-12T22:55:37.521Z,11.8
2022-12-12T23:01:12.457Z,11.9
2022-12-12T23:06:47.917Z,11.9
2022-12-12T23:12:43.597Z,11.9
2022-12-12T23:18:18.845Z,12
2022-12-12T23:23:53.762Z,12
2022-12-12T23:29:29.084Z,12
2022-12-12T23:35:08.012Z,12
2022-12-12T23:40:43.443Z,12
2022-12-12T23:46:19.629Z,12
2022-12-12T23:51:54.735Z,12
2022-12-12T23:57:29.742Z,12
